createdAt,value
2018-03-31T00:00:56.982Z,24.00
2018-03-31T00:03:23.848Z,24.17
2018-03-31T00:05:50.714Z,23.33
2018-03-31T00:08:17.596Z,20.80
2018-03-31T00:10:44.478Z,18.33
2018-03-31T00:13:11.350Z,21.77
2018-03-31T00:15:38.219Z,22.17
2018-03-31T00:18:05.150Z,22.63
2018-03-31T00:20:31.994Z,20.47
2018-03-31T00:22:58.867Z,19.77
2018-03-31T00:25:26.082Z,21.50
2018-03-31T00:27:52.965Z,20.10
2018-03-31T00:30:19.838Z,21.67
2018-03-31T00:32:46.721Z,20.00
2018-03-31T00:35:13.593Z,21.13
2018-03-31T00:37:40.484Z,22.63
2018-03-31T00:40:07.349Z,21.53
2018-03-31T00:42:34.419Z,21.77
2018-03-31T00:45:01.299Z,21.63
2018-03-31T00:47:28.281Z,21.13
2018-03-31T00:49:55.177Z,20.33
2018-03-31T00:52:22.193Z,21.17
2018-03-31T00:54:49.071Z,20.70
2018-03-31T00:57:15.954Z,20.20
2018-03-31T00:59:42.814Z,20.80
2018-03-31T01:02:09.797Z,18.47
2018-03-31T01:04:36.666Z,19.87
2018-03-31T01:07:03.542Z,17.07
2018-03-31T01:09:30.417Z,18.63
2018-03-31T01:11:57.326Z,18.37
2018-03-31T01:14:24.193Z,20.40
2018-03-31T01:16:51.063Z,19.67
2018-03-31T01:19:17.941Z,18.27
2018-03-31T01:21:44.813Z,18.70
2018-03-31T01:24:11.704Z,16.03
2018-03-31T01:26:38.565Z,18.47
2018-03-31T01:29:05.445Z,20.20
2018-03-31T01:31:32.315Z,18.30
2018-03-31T01:33:59.177Z,18.33
2018-03-31T01:36:26.048Z,18.00
2018-03-31T01:38:52.917Z,16.13
2018-03-31T01:41:19.801Z,17.67
2018-03-31T01:43:46.670Z,17.73
2018-03-31T01:46:13.558Z,17.07
2018-03-31T01:48:40.427Z,17.73
2018-03-31T01:51:07.310Z,17.33
2018-03-31T01:53:34.177Z,17.53
2018-03-31T01:56:01.073Z,20.27
2018-03-31T01:58:27.965Z,16.00
2018-03-31T02:00:54.983Z,17.73
2018-03-31T02:03:21.902Z,15.73
2018-03-31T02:05:48.802Z,15.90
2018-03-31T02:08:15.680Z,17.37
2018-03-31T02:10:42.565Z,15.73
2018-03-31T02:13:09.437Z,14.47
2018-03-31T02:15:36.312Z,16.93
2018-03-31T02:18:03.293Z,17.63
2018-03-31T02:20:30.178Z,18.67
2018-03-31T02:22:57.062Z,17.43
2018-03-31T02:25:23.986Z,16.80
2018-03-31T02:27:50.907Z,17.27
2018-03-31T02:30:17.868Z,15.30
2018-03-31T02:32:44.791Z,16.40
2018-03-31T02:35:11.642Z,16.80
2018-03-31T02:37:38.510Z,14.17
2018-03-31T02:40:05.393Z,15.40
2018-03-31T02:42:32.263Z,16.00
2018-03-31T02:44:59.154Z,16.03
2018-03-31T02:47:26.028Z,18.23
2018-03-31T02:49:52.947Z,17.13
2018-03-31T02:52:19.818Z,15.27
2018-03-31T02:54:46.714Z,17.57
2018-03-31T02:57:13.621Z,17.60
2018-03-31T02:59:40.486Z,18.63
2018-03-31T03:02:07.360Z,16.13
2018-03-31T03:04:34.231Z,15.10
2018-03-31T03:07:01.116Z,17.03
2018-03-31T03:09:28.006Z,16.60
2018-03-31T03:11:54.910Z,14.63
2018-03-31T03:14:21.835Z,17.20
2018-03-31T03:16:48.713Z,16.53
2018-03-31T03:19:15.593Z,16.63
2018-03-31T03:21:42.478Z,16.40
2018-03-31T03:24:09.352Z,14.50
2018-03-31T03:26:36.227Z,15.00
2018-03-31T03:29:03.090Z,15.20
2018-03-31T03:31:30.013Z,16.10
2018-03-31T03:33:56.917Z,19.13
2018-03-31T03:36:23.895Z,19.47
2018-03-31T03:38:51.167Z,23.33
2018-03-31T03:41:18.037Z,20.53
2018-03-31T03:43:45.011Z,20.53
2018-03-31T03:46:11.872Z,22.27
2018-03-31T03:48:38.751Z,23.40
2018-03-31T03:51:05.628Z,25.80
2018-03-31T03:53:32.505Z,20.37
2018-03-31T03:55:59.393Z,22.37
2018-03-31T03:58:26.262Z,19.60
2018-03-31T04:00:53.124Z,20.80
2018-03-31T04:03:20.238Z,18.63
2018-03-31T04:05:47.106Z,18.33
2018-03-31T04:08:13.970Z,19.20
2018-03-31T04:10:40.850Z,18.90
2018-03-31T04:13:07.714Z,18.97
2018-03-31T04:15:34.606Z,18.80
2018-03-31T04:18:01.477Z,19.47
2018-03-31T04:20:28.345Z,18.33
2018-03-31T04:22:55.230Z,17.77
2018-03-31T04:25:22.118Z,19.23
2018-03-31T04:27:49.002Z,17.57
2018-03-31T04:30:15.873Z,17.70
2018-03-31T04:32:42.761Z,17.67
2018-03-31T04:35:09.645Z,16.97
2018-03-31T04:37:36.510Z,19.57
2018-03-31T04:40:03.390Z,18.73
2018-03-31T04:42:30.277Z,17.90
2018-03-31T04:44:57.186Z,18.97
2018-03-31T04:47:24.096Z,21.63
2018-03-31T04:49:50.984Z,24.30
2018-03-31T04:52:17.892Z,23.73
2018-03-31T04:54:44.756Z,22.70
2018-03-31T04:57:11.635Z,23.37
2018-03-31T04:59:38.517Z,22.43
2018-03-31T05:02:05.382Z,22.73
2018-03-31T05:04:32.270Z,19.57
2018-03-31T05:06:59.176Z,21.20
2018-03-31T05:09:26.083Z,20.63
2018-03-31T05:11:53.013Z,20.97
2018-03-31T05:14:19.888Z,24.60
2018-03-31T05:16:46.749Z,23.10
2018-03-31T05:19:13.636Z,22.40
2018-03-31T05:21:40.498Z,20.57
2018-03-31T05:24:07.384Z,21.50
2018-03-31T05:26:34.249Z,23.27
2018-03-31T05:29:01.138Z,27.47
2018-03-31T05:31:28.014Z,24.00
2018-03-31T05:33:54.893Z,24.43
2018-03-31T05:36:21.764Z,21.93
2018-03-31T05:38:48.637Z,22.93
2018-03-31T05:41:15.532Z,21.93
2018-03-31T05:43:42.407Z,23.10
2018-03-31T05:46:09.269Z,21.77
2018-03-31T05:48:36.153Z,22.00
2018-03-31T05:51:03.019Z,20.17
2018-03-31T05:53:29.878Z,20.27
2018-03-31T05:55:56.761Z,20.37
2018-03-31T05:58:23.623Z,22.57
2018-03-31T06:00:50.541Z,21.70
2018-03-31T06:03:17.409Z,23.27
2018-03-31T06:05:44.291Z,22.33
2018-03-31T06:08:11.158Z,24.87
2018-03-31T06:10:38.054Z,22.53
2018-03-31T06:13:04.920Z,21.27
2018-03-31T06:15:31.792Z,21.80
2018-03-31T06:17:58.678Z,22.23
2018-03-31T06:20:25.563Z,22.73
2018-03-31T06:22:52.421Z,21.37
2018-03-31T06:25:19.315Z,20.87
2018-03-31T06:27:46.172Z,20.00
2018-03-31T06:30:13.058Z,20.50
2018-03-31T06:32:39.922Z,21.70
2018-03-31T06:35:06.799Z,18.40
2018-03-31T06:37:33.681Z,17.30
2018-03-31T06:40:00.561Z,16.47
2018-03-31T06:42:27.429Z,16.07
2018-03-31T06:44:54.310Z,17.57
2018-03-31T06:47:21.190Z,16.60
2018-03-31T06:49:48.069Z,15.97
2018-03-31T06:52:14.960Z,17.23
2018-03-31T06:54:41.871Z,16.37
2018-03-31T06:57:08.717Z,19.50
2018-03-31T06:59:35.589Z,17.30
2018-03-31T07:02:02.474Z,17.53
2018-03-31T07:04:29.353Z,18.87
2018-03-31T07:06:56.238Z,16.87
2018-03-31T07:09:23.109Z,17.10
2018-03-31T07:11:49.994Z,17.57
2018-03-31T07:14:16.867Z,19.03
2018-03-31T07:16:43.721Z,16.67
2018-03-31T07:19:10.610Z,17.43
2018-03-31T07:21:47.606Z,19.10
2018-03-31T07:24:14.473Z,17.40
2018-03-31T07:26:41.341Z,20.03
2018-03-31T07:29:08.229Z,18.37
2018-03-31T07:31:35.099Z,18.33
2018-03-31T07:34:01.977Z,18.53
2018-03-31T07:36:28.861Z,17.53
2018-03-31T07:38:55.753Z,19.13
2018-03-31T07:41:22.625Z,18.13
2018-03-31T07:43:49.495Z,18.33
2018-03-31T07:46:16.374Z,19.73
2018-03-31T07:48:43.246Z,19.83
2018-03-31T07:51:10.131Z,20.23
2018-03-31T07:53:36.993Z,18.83
2018-03-31T07:56:03.881Z,19.83
2018-03-31T07:58:30.761Z,19.70
2018-03-31T08:00:57.763Z,19.60
2018-03-31T08:03:24.613Z,18.10
2018-03-31T08:05:51.542Z,18.13
2018-03-31T08:08:18.430Z,19.27
2018-03-31T08:10:45.302Z,19.53
2018-03-31T08:13:12.195Z,18.80
2018-03-31T08:15:39.069Z,18.77
2018-03-31T08:18:05.954Z,19.10
2018-03-31T08:20:32.826Z,17.77
2018-03-31T08:22:59.709Z,19.13
2018-03-31T08:25:26.582Z,18.93
2018-03-31T08:27:53.458Z,18.37
2018-03-31T08:30:20.336Z,19.53
2018-03-31T08:32:47.218Z,19.23
2018-03-31T08:35:14.110Z,18.63
2018-03-31T08:37:41.060Z,19.60
2018-03-31T08:40:07.921Z,17.13
2018-03-31T08:42:34.802Z,19.10
2018-03-31T08:45:01.673Z,18.70
2018-03-31T08:47:28.594Z,18.87
2018-03-31T08:49:55.514Z,17.70
2018-03-31T08:52:22.443Z,19.80
2018-03-31T08:54:49.332Z,17.63
2018-03-31T08:57:16.217Z,18.00
2018-03-31T08:59:43.106Z,19.50
2018-03-31T09:02:09.997Z,18.70
2018-03-31T09:04:36.866Z,20.00
2018-03-31T09:07:03.756Z,20.43
2018-03-31T09:09:30.622Z,20.63
2018-03-31T09:11:57.506Z,18.77
2018-03-31T09:14:24.374Z,18.57
2018-03-31T09:16:51.258Z,19.93
2018-03-31T09:19:18.131Z,18.87
2018-03-31T09:21:45.022Z,19.13
2018-03-31T09:24:11.886Z,19.80
2018-03-31T09:26:38.770Z,19.07
2018-03-31T09:29:05.661Z,18.07
2018-03-31T09:31:32.529Z,19.77
2018-03-31T09:33:59.405Z,19.70
2018-03-31T09:36:26.272Z,18.40
2018-03-31T09:38:53.169Z,19.27
2018-03-31T09:41:20.030Z,17.00
2018-03-31T09:43:46.934Z,18.47
2018-03-31T09:46:13.810Z,19.80
2018-03-31T09:48:40.693Z,19.67
2018-03-31T09:51:07.562Z,21.80
2018-03-31T09:53:34.446Z,21.17
2018-03-31T09:56:01.381Z,20.00
2018-03-31T09:58:28.355Z,22.10
2018-03-31T10:01:00.881Z,22.97
2018-03-31T10:03:27.757Z,24.07
2018-03-31T10:05:54.679Z,25.27
2018-03-31T10:08:21.519Z,26.17
2018-03-31T10:10:48.397Z,24.90
2018-03-31T10:13:15.385Z,21.63
2018-03-31T10:15:42.298Z,22.60
2018-03-31T10:18:09.173Z,20.77
2018-03-31T10:20:36.062Z,21.47
2018-03-31T10:23:02.993Z,19.83
2018-03-31T10:25:29.877Z,21.60
2018-03-31T10:27:56.751Z,22.70
2018-03-31T10:30:23.914Z,21.57
2018-03-31T10:32:50.830Z,21.13
2018-03-31T10:35:17.707Z,21.50
2018-03-31T10:37:44.589Z,21.27
2018-03-31T10:40:11.491Z,21.77
2018-03-31T10:42:38.651Z,21.43
2018-03-31T10:45:05.502Z,19.17
2018-03-31T10:47:32.422Z,20.60
2018-03-31T10:49:59.346Z,20.87
2018-03-31T10:52:26.262Z,20.60
2018-03-31T10:54:53.157Z,19.63
2018-03-31T10:57:20.080Z,21.50
2018-03-31T10:59:47.019Z,19.60
2018-03-31T11:02:13.887Z,19.40
2018-03-31T11:04:40.773Z,17.80
2018-03-31T11:07:07.656Z,18.23
2018-03-31T11:09:34.536Z,17.97
2018-03-31T11:12:01.421Z,19.80
2018-03-31T11:14:28.312Z,19.80
2018-03-31T11:16:55.188Z,21.60
2018-03-31T11:19:22.069Z,22.00
2018-03-31T11:21:48.945Z,22.70
2018-03-31T11:24:15.828Z,22.27
2018-03-31T11:26:42.685Z,21.67
2018-03-31T11:29:09.569Z,19.80
2018-03-31T11:31:36.440Z,20.10
2018-03-31T11:34:03.323Z,20.13
2018-03-31T11:36:30.198Z,19.63
2018-03-31T11:38:57.082Z,20.77
2018-03-31T11:41:23.946Z,17.83
2018-03-31T11:43:50.826Z,19.50
2018-03-31T11:46:17.706Z,19.17
2018-03-31T11:48:44.599Z,21.27
2018-03-31T11:51:11.482Z,20.80
2018-03-31T11:53:38.362Z,19.80
2018-03-31T11:56:05.250Z,20.03
2018-03-31T11:58:33.610Z,17.03
2018-03-31T12:01:06.878Z,18.43
2018-03-31T12:03:33.790Z,18.03
2018-03-31T12:06:00.669Z,18.53
2018-03-31T12:08:27.572Z,18.27
2018-03-31T12:10:54.556Z,19.90
2018-03-31T12:13:21.572Z,19.07
2018-03-31T12:15:48.511Z,20.03
2018-03-31T12:18:15.374Z,18.23
2018-03-31T12:20:42.274Z,18.47
2018-03-31T12:23:09.157Z,18.43
2018-03-31T12:25:37.234Z,17.50
2018-03-31T12:28:04.105Z,18.07
2018-03-31T12:30:31.010Z,20.20
2018-03-31T12:32:57.896Z,19.73
2018-03-31T12:35:24.759Z,20.00
2018-03-31T12:37:51.645Z,22.23
2018-03-31T12:40:18.552Z,21.10
2018-03-31T12:42:45.440Z,21.10
2018-03-31T12:45:12.305Z,20.23
2018-03-31T12:47:39.175Z,20.83
2018-03-31T12:50:06.065Z,20.60
2018-03-31T12:52:33.009Z,21.63
2018-03-31T12:54:59.985Z,22.20
2018-03-31T12:57:26.969Z,22.50
2018-03-31T12:59:53.875Z,23.63
2018-03-31T13:02:21.514Z,23.20
2018-03-31T13:04:48.424Z,22.10
2018-03-31T13:07:16.070Z,21.30
2018-03-31T13:09:42.956Z,23.33
2018-03-31T13:12:09.844Z,25.13
2018-03-31T13:14:36.723Z,19.17
2018-03-31T13:17:03.597Z,26.23
2018-03-31T13:19:30.522Z,32.43
2018-03-31T13:21:57.390Z,29.60
2018-03-31T13:24:24.282Z,29.87
2018-03-31T13:26:51.173Z,29.10
2018-03-31T13:29:18.071Z,32.07
2018-03-31T13:31:44.958Z,30.73
2018-03-31T13:34:11.856Z,27.30
2018-03-31T13:36:38.758Z,28.37
2018-03-31T13:39:05.643Z,28.17
2018-03-31T13:41:32.618Z,29.83
2018-03-31T13:43:59.585Z,29.93
2018-03-31T13:46:26.534Z,30.93
2018-03-31T13:48:53.544Z,29.80
2018-03-31T13:51:20.462Z,30.20
2018-03-31T13:53:47.359Z,30.37
2018-03-31T13:56:14.295Z,32.47
2018-03-31T13:58:41.204Z,29.93
2018-03-31T14:01:08.078Z,32.10
2018-03-31T14:03:34.987Z,32.77
2018-03-31T14:06:01.850Z,29.00
2018-03-31T14:08:28.773Z,29.10
2018-03-31T14:10:55.642Z,28.60
2018-03-31T14:13:22.528Z,30.60
2018-03-31T14:15:49.410Z,28.00
2018-03-31T14:18:16.297Z,28.77
2018-03-31T14:20:43.189Z,27.93
2018-03-31T14:23:10.133Z,32.00
2018-03-31T14:25:37.870Z,33.33
2018-03-31T14:28:04.754Z,33.17
2018-03-31T14:30:31.637Z,30.20
2018-03-31T14:32:58.510Z,30.90
2018-03-31T14:35:25.590Z,32.23
2018-03-31T14:37:52.501Z,29.17
2018-03-31T14:40:19.400Z,28.33
2018-03-31T14:42:46.279Z,29.70
2018-03-31T14:45:13.176Z,29.60
2018-03-31T14:47:40.037Z,34.20
2018-03-31T14:50:06.917Z,35.03
2018-03-31T14:52:33.962Z,33.00
2018-03-31T14:55:00.837Z,35.23
2018-03-31T14:57:27.777Z,33.97
2018-03-31T14:59:54.757Z,34.73
2018-03-31T15:02:21.636Z,36.87
2018-03-31T15:04:48.509Z,34.37
2018-03-31T15:07:15.408Z,33.20
2018-03-31T15:09:42.273Z,35.90
2018-03-31T15:12:09.157Z,39.37
2018-03-31T15:14:36.034Z,35.67
2018-03-31T15:17:02.934Z,35.27
2018-03-31T15:19:29.859Z,37.43
2018-03-31T15:21:56.740Z,36.13
2018-03-31T15:24:23.609Z,37.00
2018-03-31T15:26:50.489Z,35.70
2018-03-31T15:29:17.369Z,32.63
2018-03-31T15:31:44.256Z,33.13
2018-03-31T15:34:11.113Z,31.13
2018-03-31T15:36:38.004Z,33.97
2018-03-31T15:39:04.876Z,34.73
2018-03-31T15:41:41.295Z,31.23
2018-03-31T15:44:08.619Z,32.77
2018-03-31T15:46:35.538Z,34.87
2018-03-31T15:49:02.367Z,33.53
2018-03-31T15:51:29.318Z,36.47
2018-03-31T15:53:56.223Z,38.17
2018-03-31T15:56:23.159Z,36.20
2018-03-31T15:58:50.041Z,36.83
2018-03-31T16:01:16.966Z,38.13
2018-03-31T16:03:43.941Z,44.10
2018-03-31T16:06:10.821Z,44.47
2018-03-31T16:08:37.686Z,51.20
2018-03-31T16:11:04.575Z,47.17
2018-03-31T16:13:31.474Z,56.17
2018-03-31T16:15:58.455Z,58.67
2018-03-31T16:18:25.390Z,52.60
2018-03-31T16:20:52.309Z,53.67
2018-03-31T16:23:19.198Z,44.57
2018-03-31T16:25:46.065Z,45.67
2018-03-31T16:28:12.956Z,49.27
2018-03-31T16:30:39.819Z,44.47
2018-03-31T16:33:06.700Z,42.27
2018-03-31T16:35:33.565Z,40.53
2018-03-31T16:38:00.490Z,39.60
2018-03-31T16:40:27.359Z,35.17
2018-03-31T16:42:54.239Z,36.17
2018-03-31T16:45:21.110Z,35.73
2018-03-31T16:47:48.002Z,38.63
2018-03-31T16:50:14.883Z,32.63
2018-03-31T16:52:41.757Z,33.07
2018-03-31T16:55:08.628Z,34.77
2018-03-31T16:57:35.509Z,34.67
2018-03-31T17:00:02.433Z,38.53
2018-03-31T17:02:29.374Z,31.80
2018-03-31T17:04:56.263Z,33.27
2018-03-31T17:07:23.170Z,35.20
2018-03-31T17:09:50.065Z,33.83
2018-03-31T17:12:17.746Z,37.07
2018-03-31T17:14:44.625Z,37.07
2018-03-31T17:17:11.589Z,36.93
2018-03-31T17:19:39.247Z,37.60
2018-03-31T17:22:06.125Z,40.00
2018-03-31T17:24:33.080Z,49.77
2018-03-31T17:27:00.014Z,45.67
2018-03-31T17:29:26.942Z,46.40
2018-03-31T17:31:53.908Z,54.57
2018-03-31T17:34:21.471Z,51.97
2018-03-31T17:36:48.443Z,56.40
2018-03-31T17:39:15.287Z,57.97
2018-03-31T17:41:42.155Z,56.40
2018-03-31T17:44:10.126Z,55.30
2018-03-31T17:46:36.989Z,55.90
2018-03-31T17:49:04.172Z,59.63
2018-03-31T17:51:31.868Z,51.63
2018-03-31T17:53:58.852Z,48.80
2018-03-31T17:56:26.324Z,53.50
2018-03-31T17:58:53.490Z,56.97
2018-03-31T18:01:20.381Z,52.20
2018-03-31T18:03:47.274Z,50.63
2018-03-31T18:06:14.169Z,47.67
2018-03-31T18:08:41.165Z,52.70
2018-03-31T18:11:08.075Z,50.80
2018-03-31T18:13:34.958Z,55.10
2018-03-31T18:16:02.752Z,54.73
2018-03-31T18:18:29.666Z,51.73
2018-03-31T18:20:56.754Z,60.97
2018-03-31T18:23:24.662Z,48.13
2018-03-31T18:25:53.683Z,60.17
2018-03-31T18:28:20.562Z,58.70
2018-03-31T18:30:47.486Z,56.53
2018-03-31T18:33:14.919Z,56.70
2018-03-31T18:35:41.795Z,56.07
2018-03-31T18:38:08.672Z,47.67
2018-03-31T18:40:35.561Z,55.47
2018-03-31T18:43:02.494Z,58.67
2018-03-31T18:45:29.479Z,64.43
2018-03-31T18:47:58.435Z,65.20
2018-03-31T18:50:25.405Z,63.73
2018-03-31T18:52:52.514Z,64.73
2018-03-31T18:55:19.400Z,54.70
2018-03-31T18:57:47.475Z,49.77
2018-03-31T19:00:14.349Z,51.77
2018-03-31T19:02:41.223Z,52.27
2018-03-31T19:05:08.726Z,53.63
2018-03-31T19:07:35.765Z,46.83
2018-03-31T19:10:02.622Z,50.53
2018-03-31T19:12:29.685Z,44.53
2018-03-31T19:14:57.746Z,40.53
2018-03-31T19:17:24.633Z,37.83
2018-03-31T19:19:51.695Z,39.00
2018-03-31T19:22:18.615Z,40.07
2018-03-31T19:24:51.042Z,48.13
2018-03-31T19:27:18.359Z,42.73
2018-03-31T19:29:45.227Z,38.17
2018-03-31T19:32:12.139Z,41.80
2018-03-31T19:34:39.261Z,37.87
2018-03-31T19:37:06.138Z,36.63
2018-03-31T19:39:39.737Z,44.77
2018-03-31T19:42:06.609Z,38.30
2018-03-31T19:44:34.646Z,39.43
2018-03-31T19:47:01.573Z,40.07
2018-03-31T19:49:28.438Z,36.27
2018-03-31T19:51:55.709Z,42.70
2018-03-31T19:54:23.354Z,44.37
2018-03-31T19:56:50.219Z,44.70
2018-03-31T19:59:17.680Z,39.73
2018-03-31T20:01:44.558Z,40.33
2018-03-31T20:04:11.427Z,38.83
2018-03-31T20:06:39.499Z,37.53
2018-03-31T20:09:06.367Z,35.23
2018-03-31T20:11:33.549Z,34.50
2018-03-31T20:14:00.458Z,30.17
2018-03-31T20:16:27.346Z,29.83
2018-03-31T20:18:54.344Z,28.03
2018-03-31T20:21:22.736Z,31.67
2018-03-31T20:23:49.672Z,33.17
2018-03-31T20:26:16.677Z,36.03
2018-03-31T20:28:43.572Z,35.73
2018-03-31T20:31:10.429Z,35.00
2018-03-31T20:33:38.509Z,37.23
2018-03-31T20:36:05.365Z,37.50
2018-03-31T20:38:32.254Z,38.37
2018-03-31T20:40:59.150Z,35.17
2018-03-31T20:43:26.090Z,37.20
2018-03-31T20:45:52.998Z,36.97
2018-03-31T20:48:19.898Z,33.80
2018-03-31T20:50:47.009Z,40.47
2018-03-31T20:53:13.952Z,38.33
2018-03-31T20:55:40.815Z,39.63
2018-03-31T20:58:07.697Z,40.17
2018-03-31T21:00:34.605Z,39.87
2018-03-31T21:03:01.471Z,42.17
2018-03-31T21:05:28.448Z,43.67
2018-03-31T21:07:55.356Z,45.77
2018-03-31T21:10:22.279Z,41.73
2018-03-31T21:12:49.158Z,41.80
2018-03-31T21:15:16.051Z,46.00
2018-03-31T21:17:43.486Z,38.83
2018-03-31T21:20:10.362Z,37.90
2018-03-31T21:22:37.235Z,43.93
2018-03-31T21:25:04.876Z,40.37
2018-03-31T21:27:31.754Z,38.07
2018-03-31T21:29:58.679Z,34.27
2018-03-31T21:32:25.590Z,28.27
2018-03-31T21:34:52.744Z,27.87
2018-03-31T21:37:19.664Z,28.63
2018-03-31T21:39:46.606Z,23.63
2018-03-31T21:42:13.589Z,25.27
2018-03-31T21:44:40.450Z,25.87
2018-03-31T21:47:07.356Z,25.57
2018-03-31T21:49:34.220Z,27.40
2018-03-31T21:52:01.102Z,30.53
2018-03-31T21:54:27.993Z,33.37
2018-03-31T21:56:54.956Z,36.00
2018-03-31T21:59:21.803Z,37.27
2018-03-31T22:01:48.694Z,38.53
2018-03-31T22:04:15.565Z,41.77
2018-03-31T22:06:42.450Z,35.90
2018-03-31T22:09:09.324Z,40.80
2018-03-31T22:11:36.202Z,35.43
2018-03-31T22:14:08.833Z,32.77
2018-03-31T22:16:35.719Z,38.67
2018-03-31T22:19:02.578Z,38.07
2018-03-31T22:21:29.453Z,35.53
2018-03-31T22:23:56.358Z,41.60
2018-03-31T22:26:23.256Z,39.10
2018-03-31T22:28:50.126Z,37.73
2018-03-31T22:31:17.026Z,41.03
2018-03-31T22:33:43.924Z,44.20
2018-03-31T22:36:10.788Z,36.10
2018-03-31T22:38:37.674Z,45.50
2018-03-31T22:41:04.550Z,39.63
2018-03-31T22:43:31.429Z,42.07
2018-03-31T22:45:58.344Z,51.07
2018-03-31T22:48:25.229Z,49.40
2018-03-31T22:50:52.132Z,49.43
2018-03-31T22:53:19.022Z,55.10
2018-03-31T22:55:45.915Z,50.33
2018-03-31T22:58:12.790Z,53.07
2018-03-31T23:00:39.657Z,51.40
2018-03-31T23:03:06.534Z,49.73
2018-03-31T23:05:33.449Z,42.97
2018-03-31T23:08:00.273Z,43.47
2018-03-31T23:10:27.162Z,46.43
2018-03-31T23:12:54.042Z,52.87
2018-03-31T23:15:20.913Z,46.30
2018-03-31T23:17:47.782Z,44.20
2018-03-31T23:20:14.657Z,47.33
2018-03-31T23:22:41.539Z,54.00
2018-03-31T23:25:08.422Z,57.87
2018-03-31T23:27:35.289Z,52.27
2018-03-31T23:30:02.506Z,47.27
2018-03-31T23:32:29.392Z,47.83
2018-03-31T23:34:56.295Z,43.43
2018-03-31T23:37:23.193Z,48.83
2018-03-31T23:39:50.067Z,53.17
2018-03-31T23:42:16.964Z,54.33
2018-03-31T23:44:43.864Z,46.90
2018-03-31T23:47:10.746Z,48.80
2018-03-31T23:49:37.609Z,53.90
2018-03-31T23:52:04.773Z,42.83
2018-03-31T23:54:31.646Z,42.70
2018-03-31T23:56:58.533Z,42.67
2018-03-31T23:59:25.413Z,57.90
